sensor_id;sensor_type;location;lat;lon;timestamp;pressure;altitude;pressure_sealevel;temperature;humidity
19600;BME280;9947;57.722;12.012;2022-11-12T00:00:57;101669.66;;;12.36;87.53
19600;BME280;9947;57.722;12.012;2022-11-12T00:03:25;101656.84;;;12.38;87.37
19600;BME280;9947;57.722;12.012;2022-11-12T00:05:52;101668.56;;;12.39;87.77
19600;BME280;9947;57.722;12.012;2022-11-12T00:08:19;101679.50;;;12.37;87.69
19600;BME280;9947;57.722;12.012;2022-11-12T00:10:48;101673.97;;;12.39;87.46
19600;BME280;9947;57.722;12.012;2022-11-12T00:13:16;101662.91;;;12.42;87.85
19600;BME280;9947;57.722;12.012;2022-11-12T00:15:44;101671.16;;;12.40;87.50
19600;BME280;9947;57.722;12.012;2022-11-12T00:18:11;101673.97;;;12.39;87.54
19600;BME280;9947;57.722;12.012;2022-11-12T00:20:38;101690.91;;;12.42;87.36
19600;BME280;9947;57.722;12.012;2022-11-12T00:23:05;101684.41;;;12.45;87.60
19600;BME280;9947;57.722;12.012;2022-11-12T00:25:31;101670.94;;;12.43;87.70
19600;BME280;9947;57.722;12.012;2022-11-12T00:28:02;101657.16;;;12.46;87.85
19600;BME280;9947;57.722;12.012;2022-11-12T00:30:31;101662.47;;;12.48;87.82
19600;BME280;9947;57.722;12.012;2022-11-12T00:33:00;101644.94;;;12.53;87.97
19600;BME280;9947;57.722;12.012;2022-11-12T00:35:28;101673.78;;;12.54;87.96
19600;BME280;9947;57.722;12.012;2022-11-12T00:37:56;101684.09;;;12.49;88.16
19600;BME280;9947;57.722;12.012;2022-11-12T00:40:23;101653.19;;;12.52;88.32
19600;BME280;9947;57.722;12.012;2022-11-12T00:42:50;101633.22;;;12.53;88.33
19600;BME280;9947;57.722;12.012;2022-11-12T00:45:17;101653.59;;;12.46;87.75
19600;BME280;9947;57.722;12.012;2022-11-12T00:47:45;101674.19;;;12.48;87.67
19600;BME280;9947;57.722;12.012;2022-11-12T00:50:12;101669.75;;;12.47;87.67
19600;BME280;9947;57.722;12.012;2022-11-12T00:52:40;101664.31;;;12.47;87.80
19600;BME280;9947;57.722;12.012;2022-11-12T00:55:07;101674.88;;;12.52;87.74
19600;BME280;9947;57.722;12.012;2022-11-12T00:57:34;101638.06;;;12.48;87.89
19600;BME280;9947;57.722;12.012;2022-11-12T01:00:01;101643.19;;;12.52;87.83
19600;BME280;9947;57.722;12.012;2022-11-12T01:02:28;101657.94;;;12.48;87.77
19600;BME280;9947;57.722;12.012;2022-11-12T01:04:56;101659.69;;;12.49;87.98
19600;BME280;9947;57.722;12.012;2022-11-12T01:07:23;101665.78;;;12.53;87.88
19600;BME280;9947;57.722;12.012;2022-11-12T01:09:50;101663.16;;;12.51;87.81
19600;BME280;9947;57.722;12.012;2022-11-12T01:12:16;101675.53;;;12.55;87.84
19600;BME280;9947;57.722;12.012;2022-11-12T01:14:43;101666.94;;;12.49;88.04
19600;BME280;9947;57.722;12.012;2022-11-12T01:17:10;101678.69;;;12.49;87.56
19600;BME280;9947;57.722;12.012;2022-11-12T01:19:37;101672.47;;;12.47;87.71
19600;BME280;9947;57.722;12.012;2022-11-12T01:22:05;101679.44;;;12.51;87.77
19600;BME280;9947;57.722;12.012;2022-11-12T01:24:31;101682.16;;;12.51;87.64
19600;BME280;9947;57.722;12.012;2022-11-12T01:26:58;101674.13;;;12.50;87.83
19600;BME280;9947;57.722;12.012;2022-11-12T01:29:25;101669.66;;;12.49;87.41
19600;BME280;9947;57.722;12.012;2022-11-12T01:31:52;101678.34;;;12.54;87.71
19600;BME280;9947;57.722;12.012;2022-11-12T01:34:18;101685.72;;;12.52;87.66
19600;BME280;9947;57.722;12.012;2022-11-12T01:36:45;101681.28;;;12.51;87.51
19600;BME280;9947;57.722;12.012;2022-11-12T01:39:13;101691.16;;;12.52;87.39
19600;BME280;9947;57.722;12.012;2022-11-12T01:41:41;101692.78;;;12.54;87.48
19600;BME280;9947;57.722;12.012;2022-11-12T01:44:14;101682.81;;;12.55;87.38
19600;BME280;9947;57.722;12.012;2022-11-12T01:46:56;101695.28;;;12.57;87.50
19600;BME280;9947;57.722;12.012;2022-11-12T01:49:27;101690.28;;;12.51;87.29
19600;BME280;9947;57.722;12.012;2022-11-12T01:51:59;101692.78;;;12.54;87.24
19600;BME280;9947;57.722;12.012;2022-11-12T01:54:30;101697.66;;;12.49;87.07
19600;BME280;9947;57.722;12.012;2022-11-12T01:56:58;101703.09;;;12.49;87.05
19600;BME280;9947;57.722;12.012;2022-11-12T01:59:28;101699.19;;;12.53;87.20
19600;BME280;9947;57.722;12.012;2022-11-12T02:01:58;101686.28;;;12.57;87.16
19600;BME280;9947;57.722;12.012;2022-11-12T02:04:26;101697.13;;;12.57;87.36
19600;BME280;9947;57.722;12.012;2022-11-12T02:06:54;101681.59;;;12.59;87.58
19600;BME280;9947;57.722;12.012;2022-11-12T02:09:22;101703.19;;;12.60;87.83
19600;BME280;9947;57.722;12.012;2022-11-12T02:11:51;101699.72;;;12.58;87.46
19600;BME280;9947;57.722;12.012;2022-11-12T02:14:18;101711.44;;;12.59;87.46
19600;BME280;9947;57.722;12.012;2022-11-12T02:16:45;101712.41;;;12.58;87.52
19600;BME280;9947;57.722;12.012;2022-11-12T02:19:15;101717.63;;;12.61;87.56
19600;BME280;9947;57.722;12.012;2022-11-12T02:21:43;101716.44;;;12.65;87.69
19600;BME280;9947;57.722;12.012;2022-11-12T02:24:34;101723.69;;;12.64;87.87
19600;BME280;9947;57.722;12.012;2022-11-12T02:27:03;101720.88;;;12.66;87.62
19600;BME280;9947;57.722;12.012;2022-11-12T02:29:31;101721.84;;;12.65;87.88
19600;BME280;9947;57.722;12.012;2022-11-12T02:31:58;101718.94;;;12.68;87.91
19600;BME280;9947;57.722;12.012;2022-11-12T02:34:25;101716.97;;;12.70;88.37
19600;BME280;9947;57.722;12.012;2022-11-12T02:36:53;101717.72;;;12.72;88.31
19600;BME280;9947;57.722;12.012;2022-11-12T02:39:20;101713.94;;;12.75;88.60
19600;BME280;9947;57.722;12.012;2022-11-12T02:41:47;101713.16;;;12.73;88.34
19600;BME280;9947;57.722;12.012;2022-11-12T02:44:14;101714.72;;;12.77;88.80
19600;BME280;9947;57.722;12.012;2022-11-12T02:46:41;101702.03;;;12.77;88.90
19600;BME280;9947;57.722;12.012;2022-11-12T02:49:08;101707.34;;;12.79;89.06
19600;BME280;9947;57.722;12.012;2022-11-12T02:51:34;101699.97;;;12.81;89.27
19600;BME280;9947;57.722;12.012;2022-11-12T02:54:03;101707.34;;;12.79;89.17
19600;BME280;9947;57.722;12.012;2022-11-12T02:56:29;101706.38;;;12.80;89.00
19600;BME280;9947;57.722;12.012;2022-11-12T02:58:56;101719.59;;;12.84;88.93
19600;BME280;9947;57.722;12.012;2022-11-12T03:01:26;101727.84;;;12.83;88.95
19600;BME280;9947;57.722;12.012;2022-11-12T03:03:53;101745.00;;;12.83;88.91
19600;BME280;9947;57.722;12.012;2022-11-12T03:06:19;101746.09;;;12.81;88.84
19600;BME280;9947;57.722;12.012;2022-11-12T03:08:46;101746.84;;;12.83;88.64
19600;BME280;9947;57.722;12.012;2022-11-12T03:11:15;101740.44;;;12.84;88.52
19600;BME280;9947;57.722;12.012;2022-11-12T03:13:42;101745.75;;;12.85;88.52
19600;BME280;9947;57.722;12.012;2022-11-12T03:16:09;101753.91;;;12.85;88.60
19600;BME280;9947;57.722;12.012;2022-11-12T03:18:36;101757.38;;;12.87;88.37
19600;BME280;9947;57.722;12.012;2022-11-12T03:21:03;101753.56;;;12.90;88.59
19600;BME280;9947;57.722;12.012;2022-11-12T03:23:30;101745.22;;;12.93;88.95
19600;BME280;9947;57.722;12.012;2022-11-12T03:25:57;101737.94;;;12.93;89.22
19600;BME280;9947;57.722;12.012;2022-11-12T03:28:25;101736.31;;;12.91;89.09
19600;BME280;9947;57.722;12.012;2022-11-12T03:30:56;101740.97;;;12.89;88.57
19600;BME280;9947;57.722;12.012;2022-11-12T03:33:24;101749.88;;;12.91;88.48
19600;BME280;9947;57.722;12.012;2022-11-12T03:35:50;101756.28;;;12.90;88.51
19600;BME280;9947;57.722;12.012;2022-11-12T03:38:17;101762.69;;;12.89;88.06
19600;BME280;9947;57.722;12.012;2022-11-12T03:40:44;101766.59;;;12.85;87.87
19600;BME280;9947;57.722;12.012;2022-11-12T03:43:11;101772.03;;;12.85;87.64
19600;BME280;9947;57.722;12.012;2022-11-12T03:45:39;101789.38;;;12.82;87.59
19600;BME280;9947;57.722;12.012;2022-11-12T03:48:06;101786.78;;;12.81;87.19
19600;BME280;9947;57.722;12.012;2022-11-12T03:50:32;101790.59;;;12.78;87.14
19600;BME280;9947;57.722;12.012;2022-11-12T03:52:59;101790.81;;;12.75;87.04
19600;BME280;9947;57.722;12.012;2022-11-12T03:55:28;101798.25;;;12.72;86.67
19600;BME280;9947;57.722;12.012;2022-11-12T03:57:55;101784.91;;;12.69;86.36
19600;BME280;9947;57.722;12.012;2022-11-12T04:00:24;101794.13;;;12.66;85.98
19600;BME280;9947;57.722;12.012;2022-11-12T04:02:53;101794.88;;;12.68;85.90
19600;BME280;9947;57.722;12.012;2022-11-12T04:05:20;101794.22;;;12.64;85.82
19600;BME280;9947;57.722;12.012;2022-11-12T04:08:08;101795.09;;;12.65;85.67
19600;BME280;9947;57.722;12.012;2022-11-12T04:10:52;101805.09;;;12.64;85.61
19600;BME280;9947;57.722;12.012;2022-11-12T04:13:19;101799.56;;;12.66;85.59
19600;BME280;9947;57.722;12.012;2022-11-12T04:15:59;101808.66;;;12.65;85.51
19600;BME280;9947;57.722;12.012;2022-11-12T04:18:46;101795.97;;;12.65;85.27
19600;BME280;9947;57.722;12.012;2022-11-12T04:21:33;101802.38;;;12.64;85.39
19600;BME280;9947;57.722;12.012;2022-11-12T04:24:23;101812.47;;;12.62;85.13
19600;BME280;9947;57.722;12.012;2022-11-12T04:27:09;101832.41;;;12.61;85.30
19600;BME280;9947;57.722;12.012;2022-11-12T04:29:36;101832.41;;;12.61;85.06
19600;BME280;9947;57.722;12.012;2022-11-12T04:32:21;101837.19;;;12.58;85.19
19600;BME280;9947;57.722;12.012;2022-11-12T04:34:51;101850.53;;;12.61;84.84
19600;BME280;9947;57.722;12.012;2022-11-12T04:37:18;101843.16;;;12.63;84.94
19600;BME280;9947;57.722;12.012;2022-11-12T04:39:45;101856.06;;;12.59;85.12
19600;BME280;9947;57.722;12.012;2022-11-12T04:42:11;101852.59;;;12.57;84.83
19600;BME280;9947;57.722;12.012;2022-11-12T04:44:55;101847.38;;;12.54;84.95
19600;BME280;9947;57.722;12.012;2022-11-12T04:47:31;101849.13;;;12.55;84.85
19600;BME280;9947;57.722;12.012;2022-11-12T04:50:01;101847.38;;;12.54;84.71
19600;BME280;9947;57.722;12.012;2022-11-12T04:52:29;101843.91;;;12.52;84.72
19600;BME280;9947;57.722;12.012;2022-11-12T04:54:56;101841.09;;;12.54;84.64
19600;BME280;9947;57.722;12.012;2022-11-12T04:57:24;101842.06;;;12.53;84.68
19600;BME280;9947;57.722;12.012;2022-11-12T04:59:50;101846.81;;;12.49;84.74
19600;BME280;9947;57.722;12.012;2022-11-12T05:02:17;101848.75;;;12.47;84.58
19600;BME280;9947;57.722;12.012;2022-11-12T05:04:44;101848.94;;;12.44;84.64
19600;BME280;9947;57.722;12.012;2022-11-12T05:07:12;101855.13;;;12.46;84.65
19600;BME280;9947;57.722;12.012;2022-11-12T05:09:40;101858.72;;;12.47;84.64
19600;BME280;9947;57.722;12.012;2022-11-12T05:12:08;101862.31;;;12.47;84.48
19600;BME280;9947;57.722;12.012;2022-11-12T05:14:35;101870.66;;;12.44;84.73
19600;BME280;9947;57.722;12.012;2022-11-12T05:17:03;101874.22;;;12.45;84.61
19600;BME280;9947;57.722;12.012;2022-11-12T05:19:30;101896.03;;;12.43;84.73
19600;BME280;9947;57.722;12.012;2022-11-12T05:21:58;101886.06;;;12.44;84.80
19600;BME280;9947;57.722;12.012;2022-11-12T05:24:32;101898.94;;;12.40;84.74
19600;BME280;9947;57.722;12.012;2022-11-12T05:26:59;101896.03;;;12.43;84.71
19600;BME280;9947;57.722;12.012;2022-11-12T05:29:26;101899.81;;;12.41;84.68
19600;BME280;9947;57.722;12.012;2022-11-12T05:31:53;101896.22;;;12.40;84.76
19600;BME280;9947;57.722;12.012;2022-11-12T05:34:20;101890.91;;;12.39;84.67
19600;BME280;9947;57.722;12.012;2022-11-12T05:36:47;101894.50;;;12.39;84.77
19600;BME280;9947;57.722;12.012;2022-11-12T05:39:13;101894.59;;;12.38;84.80
19600;BME280;9947;57.722;12.012;2022-11-12T05:41:41;101899.03;;;12.39;84.82
19600;BME280;9947;57.722;12.012;2022-11-12T05:44:09;101909.13;;;12.37;84.64
19600;BME280;9947;57.722;12.012;2022-11-12T05:46:35;101906.41;;;12.37;84.88
19600;BME280;9947;57.722;12.012;2022-11-12T05:49:02;101917.16;;;12.38;84.74
19600;BME280;9947;57.722;12.012;2022-11-12T05:51:29;101935.16;;;12.39;84.67
19600;BME280;9947;57.722;12.012;2022-11-12T05:53:56;101925.41;;;12.37;84.72
19600;BME280;9947;57.722;12.012;2022-11-12T05:56:23;101923.25;;;12.42;84.54
19600;BME280;9947;57.722;12.012;2022-11-12T05:58:51;101936.03;;;12.40;84.61
19600;BME280;9947;57.722;12.012;2022-11-12T06:01:18;101926.38;;;12.35;84.81
19600;BME280;9947;57.722;12.012;2022-11-12T06:03:44;101937.31;;;12.34;84.64
19600;BME280;9947;57.722;12.012;2022-11-12T06:06:11;101934.50;;;12.35;84.77
19600;BME280;9947;57.722;12.012;2022-11-12T06:08:38;101942.63;;;12.35;84.64
19600;BME280;9947;57.722;12.012;2022-11-12T06:11:05;101949.03;;;12.34;84.61
19600;BME280;9947;57.722;12.012;2022-11-12T06:13:31;101957.06;;;12.36;84.76
19600;BME280;9947;57.722;12.012;2022-11-12T06:15:59;101956.09;;;12.37;84.75
19600;BME280;9947;57.722;12.012;2022-11-12T06:18:26;101963.47;;;12.35;84.79
19600;BME280;9947;57.722;12.012;2022-11-12T06:20:53;101982.25;;;12.38;84.98
19600;BME280;9947;57.722;12.012;2022-11-12T06:23:43;101984.19;;;12.36;84.80
19600;BME280;9947;57.722;12.012;2022-11-12T06:26:10;101991.56;;;12.34;84.75
19600;BME280;9947;57.722;12.012;2022-11-12T06:28:37;101997.94;;;12.33;84.63
19600;BME280;9947;57.722;12.012;2022-11-12T06:31:05;101990.47;;;12.37;84.67
19600;BME280;9947;57.722;12.012;2022-11-12T06:33:32;101982.44;;;12.35;84.76
19600;BME280;9947;57.722;12.012;2022-11-12T06:36:00;101973.75;;;12.30;84.84
19600;BME280;9947;57.722;12.012;2022-11-12T06:38:31;101962.13;;;12.28;84.92
19600;BME280;9947;57.722;12.012;2022-11-12T06:40:59;101955.63;;;12.30;84.93
19600;BME280;9947;57.722;12.012;2022-11-12T06:43:29;101960.59;;;12.24;85.07
19600;BME280;9947;57.722;12.012;2022-11-12T06:46:00;101973.34;;;12.22;85.00
19600;BME280;9947;57.722;12.012;2022-11-12T06:48:29;101986.03;;;12.21;85.07
19600;BME280;9947;57.722;12.012;2022-11-12T06:50:56;102004.22;;;12.19;85.14
19600;BME280;9947;57.722;12.012;2022-11-12T06:53:24;102015.94;;;12.20;85.00
19600;BME280;9947;57.722;12.012;2022-11-12T06:55:51;102024.94;;;12.20;84.88
19600;BME280;9947;57.722;12.012;2022-11-12T06:58:18;102034.81;;;12.21;84.64
19600;BME280;9947;57.722;12.012;2022-11-12T07:00:44;102038.16;;;12.26;85.18
19600;BME280;9947;57.722;12.012;2022-11-12T07:03:12;102046.38;;;12.25;85.06
19600;BME280;9947;57.722;12.012;2022-11-12T07:05:41;102041.13;;;12.22;84.96
19600;BME280;9947;57.722;12.012;2022-11-12T07:08:08;102038.41;;;12.22;85.08
19600;BME280;9947;57.722;12.012;2022-11-12T07:10:35;102043.81;;;12.22;84.90
19600;BME280;9947;57.722;12.012;2022-11-12T07:13:02;102051.97;;;12.22;84.96
19600;BME280;9947;57.722;12.012;2022-11-12T07:15:29;102053.69;;;12.23;84.87
19600;BME280;9947;57.722;12.012;2022-11-12T07:17:55;102058.75;;;12.29;85.08
19600;BME280;9947;57.722;12.012;2022-11-12T07:20:22;102070.69;;;12.26;85.02
19600;BME280;9947;57.722;12.012;2022-11-12T07:22:50;102085.09;;;12.27;84.96
19600;BME280;9947;57.722;12.012;2022-11-12T07:25:17;102097.59;;;12.29;84.97
19600;BME280;9947;57.722;12.012;2022-11-12T07:27:44;102094.31;;;12.24;84.89
19600;BME280;9947;57.722;12.012;2022-11-12T07:30:11;102089.75;;;12.25;85.00
19600;BME280;9947;57.722;12.012;2022-11-12T07:32:38;102093.25;;;12.27;85.04
19600;BME280;9947;57.722;12.012;2022-11-12T07:35:07;102101.19;;;12.30;85.05
19600;BME280;9947;57.722;12.012;2022-11-12T07:37:34;102113.97;;;12.28;84.93
19600;BME280;9947;57.722;12.012;2022-11-12T07:40:03;102118.31;;;12.30;85.05
19600;BME280;9947;57.722;12.012;2022-11-12T07:42:31;102120.84;;;12.33;84.90
19600;BME280;9947;57.722;12.012;2022-11-12T07:44:59;102128.88;;;12.35;84.94
19600;BME280;9947;57.722;12.012;2022-11-12T07:47:26;102139.91;;;12.32;84.92
19600;BME280;9947;57.722;12.012;2022-11-12T07:49:52;102139.53;;;12.38;84.94
19600;BME280;9947;57.722;12.012;2022-11-12T07:52:20;102144.94;;;12.38;84.86
19600;BME280;9947;57.722;12.012;2022-11-12T07:54:47;102148.53;;;12.39;85.14
19600;BME280;9947;57.722;12.012;2022-11-12T07:57:15;102148.34;;;12.42;84.84
19600;BME280;9947;57.722;12.012;2022-11-12T07:59:42;102155.31;;;12.46;84.93
19600;BME280;9947;57.722;12.012;2022-11-12T08:02:09;102154.09;;;12.51;85.14
19600;BME280;9947;57.722;12.012;2022-11-12T08:04:35;102156.59;;;12.54;85.12
19600;BME280;9947;57.722;12.012;2022-11-12T08:07:02;102145.34;;;12.60;85.02
19600;BME280;9947;57.722;12.012;2022-11-12T08:09:29;102136.84;;;12.52;85.37
19600;BME280;9947;57.722;12.012;2022-11-12T08:11:56;102142.84;;;12.57;85.25
19600;BME280;9947;57.722;12.012;2022-11-12T08:14:24;102142.75;;;12.59;85.29
19600;BME280;9947;57.722;12.012;2022-11-12T08:16:51;102159.69;;;12.62;85.47
19600;BME280;9947;57.722;12.012;2022-11-12T08:19:20;102171.22;;;12.66;85.63
19600;BME280;9947;57.722;12.012;2022-11-12T08:21:46;102188.97;;;12.72;85.73
19600;BME280;9947;57.722;12.012;2022-11-12T08:24:13;102184.91;;;12.79;86.24
19600;BME280;9947;57.722;12.012;2022-11-12T08:26:40;102175.41;;;12.86;86.39
19600;BME280;9947;57.722;12.012;2022-11-12T08:29:07;102177.66;;;12.79;86.81
19600;BME280;9947;57.722;12.012;2022-11-12T08:31:35;102188.31;;;12.82;86.92
19600;BME280;9947;57.722;12.012;2022-11-12T08:34:02;102205.44;;;12.83;87.63
19600;BME280;9947;57.722;12.012;2022-11-12T08:36:36;102205.66;;;12.80;87.81
19600;BME280;9947;57.722;12.012;2022-11-12T08:39:03;102197.59;;;12.78;88.34
19600;BME280;9947;57.722;12.012;2022-11-12T08:41:30;102207.75;;;12.75;88.08
19600;BME280;9947;57.722;12.012;2022-11-12T08:43:57;102217.47;;;12.79;88.59
19600;BME280;9947;57.722;12.012;2022-11-12T08:46:24;102237.34;;;12.79;89.27
19600;BME280;9947;57.722;12.012;2022-11-12T08:48:52;102229.31;;;12.78;89.87
19600;BME280;9947;57.722;12.012;2022-11-12T08:51:19;102233.66;;;12.80;89.95
19600;BME280;9947;57.722;12.012;2022-11-12T08:53:46;102222.81;;;12.80;89.64
19600;BME280;9947;57.722;12.012;2022-11-12T08:56:13;102227.56;;;12.77;90.02
19600;BME280;9947;57.722;12.012;2022-11-12T08:58:39;102228.91;;;12.84;90.35
19600;BME280;9947;57.722;12.012;2022-11-12T09:01:07;102227.44;;;12.92;90.40
19600;BME280;9947;57.722;12.012;2022-11-12T09:03:34;102235.59;;;12.92;91.16
19600;BME280;9947;57.722;12.012;2022-11-12T09:06:03;102235.97;;;12.86;90.94
19600;BME280;9947;57.722;12.012;2022-11-12T09:08:33;102240.16;;;12.92;92.08
19600;BME280;9947;57.722;12.012;2022-11-12T09:11:01;102247.22;;;12.94;93.50
19600;BME280;9947;57.722;12.012;2022-11-12T09:13:30;102248.50;;;13.03;94.44
19600;BME280;9947;57.722;12.012;2022-11-12T09:16:01;102240.84;;;13.10;94.88
19600;BME280;9947;57.722;12.012;2022-11-12T09:18:28;102249.19;;;13.21;95.49
19600;BME280;9947;57.722;12.012;2022-11-12T09:20:59;102241.81;;;13.23;96.38
19600;BME280;9947;57.722;12.012;2022-11-12T09:23:27;102231.94;;;13.22;96.00
19600;BME280;9947;57.722;12.012;2022-11-12T09:25:54;102234.66;;;13.22;95.71
19600;BME280;9947;57.722;12.012;2022-11-12T09:28:22;102248.03;;;13.39;96.76
19600;BME280;9947;57.722;12.012;2022-11-12T09:30:50;102255.88;;;13.44;98.82
19600;BME280;9947;57.722;12.012;2022-11-12T09:33:19;102268.19;;;13.49;100.00
19600;BME280;9947;57.722;12.012;2022-11-12T09:35:47;102272.47;;;13.39;100.00
19600;BME280;9947;57.722;12.012;2022-11-12T09:38:15;102280.88;;;13.49;100.00
19600;BME280;9947;57.722;12.012;2022-11-12T09:41:14;102270.00;;;13.63;100.00
19600;BME280;9947;57.722;12.012;2022-11-12T09:43:46;102264.38;;;13.52;100.00
19600;BME280;9947;57.722;12.012;2022-11-12T09:46:25;102263.44;;;13.39;100.00
19600;BME280;9947;57.722;12.012;2022-11-12T09:48:58;102262.09;;;13.32;100.00
19600;BME280;9947;57.722;12.012;2022-11-12T09:51:30;102265.66;;;13.46;100.00
19600;BME280;9947;57.722;12.012;2022-11-12T09:53:59;102275.38;;;13.36;100.00
19600;BME280;9947;57.722;12.012;2022-11-12T09:56:29;102284.91;;;13.29;100.00
19600;BME280;9947;57.722;12.012;2022-11-12T09:58:57;102290.41;;;13.42;100.00
19600;BME280;9947;57.722;12.012;2022-11-12T10:01:37;102300.22;;;13.30;100.00
19600;BME280;9947;57.722;12.012;2022-11-12T10:04:19;102314.28;;;13.22;100.00
19600;BME280;9947;57.722;12.012;2022-11-12T10:06:55;102322.63;;;13.19;100.00
19600;BME280;9947;57.722;12.012;2022-11-12T10:09:26;102320.78;;;13.34;100.00
19600;BME280;9947;57.722;12.012;2022-11-12T10:12:05;102323.22;;;13.39;100.00
19600;BME280;9947;57.722;12.012;2022-11-12T10:15:30;102331.28;;;13.54;100.00
19600;BME280;9947;57.722;12.012;2022-11-12T10:18:19;102357.06;;;13.62;100.00
19600;BME280;9947;57.722;12.012;2022-11-12T10:20:54;102354.44;;;13.60;100.00
19600;BME280;9947;57.722;12.012;2022-11-12T10:23:25;102362.41;;;13.63;100.00
19600;BME280;9947;57.722;12.012;2022-11-12T10:25:57;102362.09;;;13.68;100.00
19600;BME280;9947;57.722;12.012;2022-11-12T10:28:32;102363.19;;;13.65;100.00
19600;BME280;9947;57.722;12.012;2022-11-12T10:31:06;102379.69;;;13.62;100.00
19600;BME280;9947;57.722;12.012;2022-11-12T10:33:36;102374.31;;;13.75;100.00
19600;BME280;9947;57.722;12.012;2022-11-12T10:36:18;102385.69;;;13.81;100.00
19600;BME280;9947;57.722;12.012;2022-11-12T10:38:49;102382.97;;;13.81;100.00
19600;BME280;9947;57.722;12.012;2022-11-12T10:41:20;102387.34;;;13.84;100.00
19600;BME280;9947;57.722;12.012;2022-11-12T10:43:57;102389.28;;;13.68;100.00
19600;BME280;9947;57.722;12.012;2022-11-12T10:46:26;102385.28;;;13.73;100.00
19600;BME280;9947;57.722;12.012;2022-11-12T10:48:58;102393.53;;;13.72;100.00
19600;BME280;9947;57.722;12.012;2022-11-12T10:51:31;102384.91;;;13.65;100.00
19600;BME280;9947;57.722;12.012;2022-11-12T10:54:18;102392.09;;;13.66;100.00
19600;BME280;9947;57.722;12.012;2022-11-12T10:56:45;102384.81;;;13.67;100.00
19600;BME280;9947;57.722;12.012;2022-11-12T10:59:20;102385.78;;;13.66;100.00
19600;BME280;9947;57.722;12.012;2022-11-12T11:01:53;102390.94;;;13.56;100.00
19600;BME280;9947;57.722;12.012;2022-11-12T11:04:33;102386.66;;;13.52;100.00
19600;BME280;9947;57.722;12.012;2022-11-12T11:07:04;102392.97;;;13.38;100.00
19600;BME280;9947;57.722;12.012;2022-11-12T11:09:31;102395.31;;;13.58;100.00
19600;BME280;9947;57.722;12.012;2022-11-12T11:11:59;102389.56;;;13.77;100.00
19600;BME280;9947;57.722;12.012;2022-11-12T11:14:30;102380.63;;;13.75;100.00
19600;BME280;9947;57.722;12.012;2022-11-12T11:16:59;102382.47;;;13.75;100.00
19600;BME280;9947;57.722;12.012;2022-11-12T11:19:33;102379.97;;;13.72;100.00
19600;BME280;9947;57.722;12.012;2022-11-12T11:22:29;102385.41;;;13.86;100.00
19600;BME280;9947;57.722;12.012;2022-11-12T11:25:19;102373.44;;;13.74;100.00
19600;BME280;9947;57.722;12.012;2022-11-12T11:28:02;102380.56;;;13.63;100.00
19600;BME280;9947;57.722;12.012;2022-11-12T11:30:32;102373.75;;;13.70;100.00
19600;BME280;9947;57.722;12.012;2022-11-12T11:33:10;102380.09;;;13.56;100.00
19600;BME280;9947;57.722;12.012;2022-11-12T11:35:51;102391.03;;;13.54;100.00
19600;BME280;9947;57.722;12.012;2022-11-12T11:38:32;102394.81;;;13.38;100.00
19600;BME280;9947;57.722;12.012;2022-11-12T11:44:02;102408.53;;;13.20;100.00
19600;BME280;9947;57.722;12.012;2022-11-12T11:46:53;102405.81;;;13.20;100.00
19600;BME280;9947;57.722;12.012;2022-11-12T11:49:38;102414.22;;;13.32;100.00
19600;BME280;9947;57.722;12.012;2022-11-12T11:52:21;102414.59;;;13.40;100.00
19600;BME280;9947;57.722;12.012;2022-11-12T11:55:03;102414.88;;;13.35;100.00
19600;BME280;9947;57.722;12.012;2022-11-12T11:57:36;102418.88;;;13.44;100.00
19600;BME280;9947;57.722;12.012;2022-11-12T12:00:12;102419.84;;;13.29;100.00
19600;BME280;9947;57.722;12.012;2022-11-12T12:03:07;102423.63;;;13.40;100.00
19600;BME280;9947;57.722;12.012;2022-11-12T12:05:50;102418.09;;;13.42;100.00
19600;BME280;9947;57.722;12.012;2022-11-12T12:08:29;102421.19;;;13.50;100.00
19600;BME280;9947;57.722;12.012;2022-11-12T12:11:08;102426.28;;;13.56;100.00
19600;BME280;9947;57.722;12.012;2022-11-12T12:13:50;102429.56;;;13.61;100.00
19600;BME280;9947;57.722;12.012;2022-11-12T12:16:26;102434.78;;;13.50;100.00
19600;BME280;9947;57.722;12.012;2022-11-12T12:19:07;102433.13;;;13.47;100.00
19600;BME280;9947;57.722;12.012;2022-11-12T12:21:38;102431.88;;;13.39;100.00
19600;BME280;9947;57.722;12.012;2022-11-12T12:24:14;102440.78;;;13.41;100.00
19600;BME280;9947;57.722;12.012;2022-11-12T12:26:45;102447.28;;;13.38;100.00
19600;BME280;9947;57.722;12.012;2022-11-12T12:29:16;102438.56;;;13.33;100.00
19600;BME280;9947;57.722;12.012;2022-11-12T12:31:48;102437.59;;;13.48;100.00
19600;BME280;9947;57.722;12.012;2022-11-12T12:34:23;102447.78;;;13.31;100.00
19600;BME280;9947;57.722;12.012;2022-11-12T12:36:56;102442.97;;;13.20;100.00
19600;BME280;9947;57.722;12.012;2022-11-12T12:39:34;102451.38;;;13.15;100.00
19600;BME280;9947;57.722;12.012;2022-11-12T12:42:08;102455.78;;;13.18;100.00
19600;BME280;9947;57.722;12.012;2022-11-12T12:44:42;102456.41;;;13.07;100.00
19600;BME280;9947;57.722;12.012;2022-11-12T12:47:27;102461.22;;;13.02;100.00
19600;BME280;9947;57.722;12.012;2022-11-12T12:49:56;102465.41;;;13.08;100.00
19600;BME280;9947;57.722;12.012;2022-11-12T12:52:24;102460.84;;;13.08;100.00
19600;BME280;9947;57.722;12.012;2022-11-12T12:54:55;102469.81;;;12.94;100.00
19600;BME280;9947;57.722;12.012;2022-11-12T12:57:28;102469.31;;;12.88;100.00
19600;BME280;9947;57.722;12.012;2022-11-12T13:03:09;102480.34;;;12.85;100.00
19600;BME280;9947;57.722;12.012;2022-11-12T13:05:38;102479.06;;;12.76;100.00
19600;BME280;9947;57.722;12.012;2022-11-12T13:08:07;102469.84;;;12.79;100.00
19600;BME280;9947;57.722;12.012;2022-11-12T13:10:53;102488.56;;;12.83;100.00